Tonbridge, United Kingdom
Current Conditions -  °F | °C
As of 12:50 PM on Sunday 21 Dec 2014 (Local Time) from EGKB Reporting Station
Broken Clouds Broken Clouds  
Wind Chill: 39°   Ceiling: 2000
Heat Index: 46°   Visibility: 6mi
Dew Point: 39°   Wind: 17mph
Humidity: 76%   Direction: 250°WSW
Pressure: 30.3"   Gusts: 33mph
Location:  51.2°N, 0.27°E
Report Text: EGKB 211250Z 25015G29KT 200V280 9999 FEW010 BKN020 08/04 Q1026
Loading
Personal Weather Stations






























Interactive Weather Map New forecast layout! Learn more

10-Day Weather Forecast

Advertisements
Track Severe Weather on mobile